Time;durP1;ratioP1;P1;durP2;ratioP2;P2;SDS_P1;SDS_P2;PMS_P1;PMS_P2;Temp;Humidity;BMP_temperature;BMP_pressure;BME280_temperature;BME280_humidity;BME280_pressure;Samples;Min_cycle;Max_cycle;Signal;HPM_P1;HPM_P2
2022/11/12 00:00:53;;;;;;;7.45;6.65;;;10.70;99.90;;;;;;5042114;28;20216;-81
2022/11/12 00:03:19;;;;;;;12.60;7.30;;;10.60;99.90;;;;;;5043545;28;20226;-83
2022/11/12 00:05:48;;;;;;;9.40;7.15;;;10.50;99.90;;;;;;5043406;28;20620;-83
2022/11/12 00:08:13;;;;;;;7.55;6.78;;;10.60;99.90;;;;;;5041494;28;20203;-81
2022/11/12 00:10:39;;;;;;;12.30;7.00;;;10.50;99.90;;;;;;5040178;28;20528;-83
2022/11/12 00:13:05;;;;;;;7.70;6.57;;;10.50;99.90;;;;;;5044429;28;20180;-82
2022/11/12 00:15:31;;;;;;;8.73;7.30;;;10.50;99.90;;;;;;5040727;28;20206;-82
2022/11/12 00:17:57;;;;;;;6.97;6.38;;;10.40;99.90;;;;;;5043901;28;20199;-81
2022/11/12 00:20:23;;;;;;;8.05;7.25;;;10.50;99.90;;;;;;5039570;28;20686;-82
2022/11/12 00:22:49;;;;;;;7.03;6.32;;;10.50;99.90;;;;;;5042053;28;20176;-82
2022/11/12 00:25:41;;;;;;;14.13;6.63;;;10.50;99.90;;;;;;5045613;28;20167;-82
2022/11/12 00:28:09;;;;;;;7.30;6.60;;;10.50;99.90;;;;;;5051261;28;20192;-83
2022/11/12 00:30:40;;;;;;;8.00;7.18;;;10.50;99.90;;;;;;5037434;28;20234;-82
2022/11/12 00:33:05;;;;;;;9.63;7.10;;;10.40;99.90;;;;;;5053009;28;20235;-80
2022/11/12 00:35:34;;;;;;;22.23;6.88;;;10.50;99.90;;;;;;5047084;28;20172;-80
2022/11/12 00:38:02;;;;;;;7.30;6.68;;;10.50;99.90;;;;;;5054479;28;20207;-81
2022/11/12 00:40:28;;;;;;;7.20;6.60;;;10.30;99.90;;;;;;5050524;28;20172;-80
2022/11/12 00:42:54;;;;;;;6.85;5.97;;;10.30;99.90;;;;;;5039831;28;20243;-80
2022/11/12 00:45:22;;;;;;;7.22;6.53;;;10.30;99.90;;;;;;5039918;28;20171;-79
2022/11/12 00:47:49;;;;;;;6.55;5.95;;;10.10;99.90;;;;;;5039272;28;20268;-79
2022/11/12 00:50:15;;;;;;;8.50;6.35;;;10.00;99.90;;;;;;5041417;28;20172;-82
2022/11/12 00:52:43;;;;;;;8.88;7.07;;;10.00;99.90;;;;;;5043743;28;20179;-80
2022/11/12 00:55:10;;;;;;;7.00;6.05;;;10.00;99.90;;;;;;5040787;28;20175;-81
2022/11/12 00:57:36;;;;;;;7.15;6.32;;;10.10;99.90;;;;;;5045778;28;20590;-82
2022/11/12 01:00:05;;;;;;;7.47;6.75;;;10.20;99.90;;;;;;5041095;28;20160;-81
2022/11/12 01:02:31;;;;;;;7.95;7.15;;;10.20;99.90;;;;;;5041294;28;20226;-82
2022/11/12 01:05:02;;;;;;;7.03;6.32;;;10.10;99.90;;;;;;5039150;28;20164;-80
2022/11/12 01:07:28;;;;;;;6.82;6.20;;;10.10;99.90;;;;;;5038086;28;20160;-80
2022/11/12 01:09:54;;;;;;;8.35;6.72;;;10.20;99.90;;;;;;5037004;28;20168;-82
2022/11/12 01:12:20;;;;;;;11.65;6.75;;;10.20;99.90;;;;;;5037414;28;20297;-81
2022/11/12 01:14:46;;;;;;;9.75;6.85;;;10.20;99.90;;;;;;5056522;28;20247;-82
2022/11/12 01:17:11;;;;;;;7.63;6.03;;;10.20;99.90;;;;;;5040216;28;20164;-81
2022/11/12 01:19:37;;;;;;;7.30;6.60;;;10.10;99.90;;;;;;5044007;28;20602;-80
2022/11/12 01:22:02;;;;;;;9.63;6.13;;;9.70;99.90;;;;;;5042728;28;20206;-84
2022/11/12 01:24:28;;;;;;;9.30;6.45;;;9.80;99.90;;;;;;5041774;28;20325;-81
2022/11/12 01:26:55;;;;;;;8.07;6.45;;;9.60;99.90;;;;;;5032710;28;20217;-83
2022/11/12 01:29:20;;;;;;;6.45;5.85;;;9.70;99.90;;;;;;5031204;28;20675;-83
2022/11/12 01:31:46;;;;;;;7.88;5.60;;;9.70;99.90;;;;;;5035477;28;20168;-80
2022/11/12 01:34:13;;;;;;;6.65;6.05;;;9.60;99.90;;;;;;5049616;28;20172;-80
2022/11/12 01:36:39;;;;;;;7.90;6.00;;;9.80;99.90;;;;;;5037203;28;20172;-80
2022/11/12 01:39:07;;;;;;;6.95;6.25;;;9.80;99.90;;;;;;5045858;28;20698;-80
2022/11/12 01:41:37;;;;;;;8.10;6.22;;;9.80;99.90;;;;;;5040931;28;20212;-81
2022/11/12 01:44:10;;;;;;;6.03;5.22;;;9.70;99.90;;;;;;5027717;28;20176;-82
2022/11/12 01:46:45;;;;;;;6.35;5.75;;;9.60;99.90;;;;;;5038105;28;20730;-82
2022/11/12 01:49:17;;;;;;;7.00;6.40;;;9.40;99.90;;;;;;5038874;28;20187;-80
2022/11/12 01:51:47;;;;;;;7.07;6.25;;;9.40;99.90;;;;;;5036400;28;20683;-82
2022/11/12 01:54:15;;;;;;;6.22;5.28;;;9.40;99.90;;;;;;5039370;28;20190;-82
2022/11/12 01:56:45;;;;;;;6.85;6.25;;;9.50;99.90;;;;;;5037720;28;20521;-81
2022/11/12 01:59:27;;;;;;;8.35;6.68;;;9.60;99.90;;;;;;5041193;28;20187;-81
2022/11/12 02:01:54;;;;;;;9.93;6.57;;;9.60;99.90;;;;;;5023052;28;20215;-80
2022/11/12 02:04:20;;;;;;;7.22;5.82;;;9.60;99.90;;;;;;5040221;28;20171;-80
2022/11/12 02:06:48;;;;;;;8.85;6.43;;;9.60;99.90;;;;;;5041729;28;20211;-84
2022/11/12 02:09:14;;;;;;;7.65;6.90;;;9.70;99.90;;;;;;5040887;28;20180;-82
2022/11/12 02:11:40;;;;;;;8.63;6.63;;;9.50;99.90;;;;;;5041569;28;20263;-81
2022/11/12 02:14:06;;;;;;;6.78;5.93;;;9.50;99.90;;;;;;5051039;28;20251;-81
2022/11/12 02:16:42;;;;;;;7.03;6.35;;;9.50;99.90;;;;;;5042947;28;20167;-81
2022/11/12 02:19:14;;;;;;;8.00;7.20;;;9.50;99.90;;;;;;5039474;28;20187;-81
2022/11/12 02:21:42;;;;;;;12.55;6.90;;;9.50;99.90;;;;;;5046486;28;20217;-79
2022/11/12 02:24:11;;;;;;;8.38;7.57;;;9.50;99.90;;;;;;5044264;28;20525;-80
2022/11/12 02:26:43;;;;;;;8.15;7.35;;;9.60;99.90;;;;;;5043567;28;20179;-82
2022/11/12 02:29:09;;;;;;;13.02;6.60;;;9.40;99.90;;;;;;5042727;28;20195;-79
2022/11/12 02:31:35;;;;;;;7.65;6.85;;;9.40;99.90;;;;;;5043898;28;20328;-80
2022/11/12 02:34:02;;;;;;;7.68;6.97;;;9.20;99.90;;;;;;5043668;28;20164;-82
2022/11/12 02:36:29;;;;;;;6.55;5.85;;;9.10;99.90;;;;;;5047039;28;20182;-82
2022/11/12 02:38:54;;;;;;;7.05;6.35;;;9.20;99.90;;;;;;5041994;28;20180;-81
2022/11/12 02:41:20;;;;;;;8.32;7.30;;;9.30;99.90;;;;;;5043101;28;20211;-82
2022/11/12 02:43:48;;;;;;;12.82;6.90;;;9.30;99.90;;;;;;5040202;28;20163;-83
2022/11/12 02:46:16;;;;;;;7.72;6.80;;;9.20;99.90;;;;;;5043405;28;20228;-80
2022/11/12 02:48:43;;;;;;;10.05;6.38;;;9.20;99.90;;;;;;5042527;28;20204;-80
2022/11/12 02:51:08;;;;;;;7.28;6.63;;;8.90;99.90;;;;;;5039952;28;20179;-80
2022/11/12 02:53:34;;;;;;;11.35;6.18;;;8.90;99.90;;;;;;5039790;28;20275;-81
2022/11/12 02:56:00;;;;;;;7.18;6.18;;;8.90;99.90;;;;;;5037305;28;20738;-81
2022/11/12 02:58:27;;;;;;;7.20;6.43;;;9.00;99.90;;;;;;5034763;28;20265;-81
2022/11/12 03:00:54;;;;;;;6.88;6.15;;;9.10;99.90;;;;;;5034556;28;20706;-80
2022/11/12 03:03:19;;;;;;;7.20;6.43;;;9.20;99.90;;;;;;5033234;28;20179;-81
2022/11/12 03:05:52;;;;;;;7.38;6.68;;;9.30;99.90;;;;;;5034683;28;20255;-82
2022/11/12 03:08:18;;;;;;;20.58;7.05;;;9.30;99.90;;;;;;5034767;28;20184;-81
2022/11/12 03:10:44;;;;;;;6.05;5.22;;;9.10;99.90;;;;;;5035139;28;20682;-80
2022/11/12 03:13:10;;;;;;;7.00;6.30;;;8.90;99.90;;;;;;5037669;28;20176;-81
2022/11/12 03:15:36;;;;;;;8.55;6.22;;;8.80;99.90;;;;;;5050180;28;20160;-81
2022/11/12 03:18:01;;;;;;;9.73;5.85;;;8.90;99.90;;;;;;5041576;28;20237;-80
2022/11/12 03:20:28;;;;;;;7.88;7.05;;;8.90;99.90;;;;;;5033365;28;20164;-83
2022/11/12 03:23:03;;;;;;;7.25;6.07;;;9.00;99.90;;;;;;5034678;28;20629;-79
2022/11/12 03:25:29;;;;;;;6.78;6.18;;;9.00;99.90;;;;;;5033455;28;20178;-81
2022/11/12 03:28:02;;;;;;;6.53;5.93;;;9.00;99.90;;;;;;5033251;28;20191;-81
2022/11/12 03:30:31;;;;;;;6.28;5.68;;;8.90;99.90;;;;;;5034503;28;20249;-80
2022/11/12 03:32:58;;;;;;;9.90;6.55;;;8.70;99.90;;;;;;5034224;28;20168;-82
2022/11/12 03:35:25;;;;;;;6.00;5.43;;;8.50;99.90;;;;;;5033102;28;20202;-81
2022/11/12 03:37:51;;;;;;;6.10;5.50;;;8.60;99.90;;;;;;5032749;28;20282;-81
2022/11/12 03:40:17;;;;;;;7.13;5.90;;;8.60;99.90;;;;;;5032682;28;20270;-81
2022/11/12 03:42:48;;;;;;;7.07;5.55;;;8.70;99.90;;;;;;5033949;28;20685;-81
2022/11/12 03:45:14;;;;;;;8.70;5.53;;;8.90;99.90;;;;;;5032563;28;20650;-81
2022/11/12 03:47:45;;;;;;;6.85;5.78;;;9.00;99.90;;;;;;5032594;28;20233;-80
2022/11/12 03:50:12;;;;;;;7.55;6.00;;;8.90;99.90;;;;;;5033859;28;20164;-83
2022/11/12 03:52:37;;;;;;;7.00;6.32;;;8.90;99.90;;;;;;5034027;28;20247;-81
2022/11/12 03:55:04;;;;;;;7.10;6.30;;;9.00;99.90;;;;;;5032527;28;20290;-81
2022/11/12 03:57:30;;;;;;;13.07;6.10;;;9.00;99.90;;;;;;5033677;28;20164;-80
2022/11/12 03:59:56;;;;;;;10.65;6.32;;;9.00;99.90;;;;;;5033707;28;20237;-81
2022/11/12 04:02:24;;;;;;;6.28;5.68;;;8.80;99.90;;;;;;5033072;28;20622;-80
2022/11/12 04:10:17;;;;;;;6.50;5.85;;;8.70;99.90;;;;;;5033749;28;20182;-81
2022/11/12 04:15:27;;;;;;;10.40;7.10;;;8.80;99.90;;;;;;5033960;28;20242;-79
2022/11/12 04:23:20;;;;;;;8.20;6.43;;;8.80;99.90;;;;;;5033035;28;20681;-82
2022/11/12 04:28:30;;;;;;;8.15;6.38;;;9.10;99.90;;;;;;5033378;28;20194;-81
2022/11/12 04:30:55;;;;;;;7.20;6.50;;;9.10;99.90;;;;;;5033113;28;20172;-81
2022/11/12 04:33:21;;;;;;;9.48;6.28;;;9.10;99.90;;;;;;5031586;28;20176;-80
2022/11/12 04:35:46;;;;;;;8.30;6.45;;;9.10;99.90;;;;;;5033159;28;20179;-83
2022/11/12 04:38:12;;;;;;;5.97;5.47;;;9.10;99.90;;;;;;5032975;28;20188;-80
2022/11/12 04:46:06;;;;;;;5.68;5.18;;;9.30;99.90;;;;;;5033367;28;20583;-83
2022/11/12 04:48:31;;;;;;;9.85;6.60;;;9.30;99.90;;;;;;5031318;28;20743;-81
2022/11/12 04:51:02;;;;;;;7.75;6.95;;;9.30;99.90;;;;;;5033007;28;20186;-82
2022/11/12 04:53:29;;;;;;;8.63;6.25;;;9.30;99.90;;;;;;5031557;28;20643;-81
2022/11/12 04:55:56;;;;;;;8.75;6.57;;;9.30;99.90;;;;;;5032767;28;20598;-80
2022/11/12 04:58:23;;;;;;;8.57;6.60;;;9.40;99.90;;;;;;5032370;28;20216;-82
2022/11/12 05:00:49;;;;;;;6.97;6.15;;;9.30;99.90;;;;;;5032096;28;20168;-83
2022/11/12 05:03:16;;;;;;;5.65;5.13;;;9.00;99.90;;;;;;5032387;28;20199;-82
2022/11/12 05:05:42;;;;;;;14.27;6.57;;;8.80;99.90;;;;;;5031484;28;20658;-81
2022/11/12 05:08:07;;;;;;;6.68;6.13;;;8.80;99.90;;;;;;5032712;28;20192;-83
2022/11/12 05:10:33;;;;;;;8.23;6.15;;;8.80;99.90;;;;;;5032327;28;20160;-82
2022/11/12 05:12:59;;;;;;;7.53;6.00;;;8.90;99.90;;;;;;5032579;28;20167;-83
2022/11/12 05:15:25;;;;;;;9.02;5.85;;;9.00;99.90;;;;;;5031580;28;20710;-81
2022/11/12 05:17:51;;;;;;;11.57;6.22;;;8.80;99.90;;;;;;5021447;28;20201;-80
2022/11/12 05:20:17;;;;;;;6.10;5.50;;;8.50;99.90;;;;;;5012532;28;20160;-82
2022/11/12 05:22:43;;;;;;;8.00;6.13;;;8.60;99.90;;;;;;5011662;28;20660;-80
2022/11/12 05:25:08;;;;;;;7.03;6.20;;;8.70;99.90;;;;;;5012805;28;20200;-80
2022/11/12 05:27:34;;;;;;;7.72;6.45;;;8.80;99.90;;;;;;5012689;28;20185;-80
2022/11/12 05:30:00;;;;;;;8.20;6.82;;;8.70;99.90;;;;;;5012715;28;20168;-80
2022/11/12 05:32:26;;;;;;;6.68;5.97;;;8.60;99.90;;;;;;5011881;28;20180;-81
2022/11/12 05:34:52;;;;;;;6.60;6.00;;;8.60;99.90;;;;;;5015205;28;20204;-81
2022/11/12 05:37:18;;;;;;;8.95;6.00;;;8.60;99.90;;;;;;5017002;28;20171;-84
2022/11/12 05:39:43;;;;;;;6.97;6.15;;;8.50;99.90;;;;;;5016585;28;20246;-83
2022/11/12 05:42:09;;;;;;;7.60;6.85;;;8.50;99.90;;;;;;5016563;28;20207;-82
2022/11/12 05:44:35;;;;;;;7.82;5.90;;;8.70;99.90;;;;;;5015335;28;20168;-81
2022/11/12 05:47:00;;;;;;;7.32;5.65;;;8.40;99.90;;;;;;5016640;28;20179;-81
2022/11/12 05:49:26;;;;;;;6.18;5.43;;;8.40;99.90;;;;;;5016158;28;20193;-82
2022/11/12 05:51:51;;;;;;;6.25;5.65;;;8.40;99.90;;;;;;5016291;28;20186;-81
2022/11/12 05:54:17;;;;;;;10.18;5.63;;;8.50;99.90;;;;;;5015534;28;20172;-83
2022/11/12 05:56:43;;;;;;;6.28;5.68;;;8.50;99.90;;;;;;5015363;28;20527;-81
2022/11/12 05:59:11;;;;;;;6.47;5.68;;;8.50;99.90;;;;;;5015279;28;20203;-81
2022/11/12 06:01:42;;;;;;;6.97;5.82;;;8.70;99.90;;;;;;5018186;28;20262;-81
2022/11/12 06:04:13;;;;;;;10.02;6.10;;;8.80;99.90;;;;;;5016147;28;20256;-82
2022/11/12 06:06:42;;;;;;;7.70;6.20;;;8.80;99.90;;;;;;5016269;28;20215;-82
2022/11/12 06:09:08;;;;;;;6.75;6.05;;;8.80;99.90;;;;;;5016110;28;20247;-81
2022/11/12 06:11:34;;;;;;;5.82;5.32;;;8.90;99.90;;;;;;5016404;28;20200;-84
2022/11/12 06:14:01;;;;;;;7.40;6.25;;;8.70;99.90;;;;;;5015137;28;20633;-80
2022/11/12 06:16:27;;;;;;;6.43;5.78;;;8.50;99.90;;;;;;5016032;28;20529;-81
2022/11/12 06:18:53;;;;;;;6.90;5.93;;;8.40;99.90;;;;;;5016003;28;20195;-81
2022/11/12 06:21:18;;;;;;;7.28;6.63;;;8.40;99.90;;;;;;5014855;28;20212;-81
2022/11/12 06:23:45;;;;;;;6.93;5.70;;;8.30;99.90;;;;;;5015988;28;20168;-80
2022/11/12 06:26:10;;;;;;;9.30;5.57;;;8.10;99.90;;;;;;5014869;28;20268;-80
2022/11/12 06:28:36;;;;;;;8.27;5.65;;;8.00;99.90;;;;;;5015424;28;20263;-79
2022/11/12 06:31:02;;;;;;;9.30;6.10;;;8.00;99.90;;;;;;5014740;28;20172;-81
2022/11/12 06:33:27;;;;;;;6.85;5.88;;;8.10;99.90;;;;;;5015523;28;20222;-81
2022/11/12 06:36:03;;;;;;;7.90;5.95;;;8.10;99.90;;;;;;5015531;28;20245;-80
2022/11/12 06:38:29;;;;;;;6.95;6.13;;;8.10;99.90;;;;;;5014097;28;20204;-80
2022/11/12 06:40:55;;;;;;;6.85;6.13;;;8.10;99.90;;;;;;5014412;28;20171;-81
2022/11/12 06:43:21;;;;;;;7.80;5.97;;;8.00;99.90;;;;;;5014220;28;20168;-81
2022/11/12 06:45:46;;;;;;;7.30;5.65;;;8.00;99.90;;;;;;5013961;28;20176;-80
2022/11/12 06:48:12;;;;;;;14.63;6.30;;;7.90;99.90;;;;;;5015484;28;20235;-81
2022/11/12 06:50:37;;;;;;;5.57;5.07;;;7.90;99.90;;;;;;5015463;28;20173;-81
2022/11/12 06:53:03;;;;;;;6.28;5.68;;;8.00;99.90;;;;;;5014202;28;20636;-82
2022/11/12 06:55:28;;;;;;;6.68;5.10;;;8.00;99.90;;;;;;5015423;28;20165;-83
2022/11/12 06:57:54;;;;;;;5.97;5.38;;;8.20;99.90;;;;;;5013755;28;20198;-83
2022/11/12 07:00:20;;;;;;;6.43;5.25;;;8.30;99.90;;;;;;5015490;28;20255;-81
2022/11/12 07:02:45;;;;;;;6.65;5.47;;;8.20;99.90;;;;;;5013943;28;20208;-81
2022/11/12 07:05:11;;;;;;;15.07;5.40;;;8.20;99.90;;;;;;5014303;28;20219;-82
2022/11/12 07:07:36;;;;;;;6.50;5.72;;;8.20;99.90;;;;;;5015186;28;20215;-81
2022/11/12 07:10:02;;;;;;;5.75;5.25;;;8.00;99.90;;;;;;5014623;28;20183;-80
2022/11/12 07:12:28;;;;;;;7.68;5.45;;;8.10;99.90;;;;;;5015139;28;20633;-81
2022/11/12 07:14:55;;;;;;;6.20;5.60;;;8.20;99.90;;;;;;5013375;28;20181;-82
2022/11/12 07:17:20;;;;;;;6.82;5.45;;;8.30;99.90;;;;;;5013428;28;20173;-82
2022/11/12 07:19:46;;;;;;;6.88;5.72;;;8.10;99.90;;;;;;5013677;28;20613;-80
2022/11/12 07:22:11;;;;;;;8.30;6.55;;;8.20;99.90;;;;;;5014698;28;20283;-80
2022/11/12 07:24:37;;;;;;;6.18;5.60;;;8.30;99.90;;;;;;5014587;28;20535;-81
2022/11/12 07:27:03;;;;;;;6.38;5.70;;;8.30;99.90;;;;;;5014686;28;20172;-82
2022/11/12 07:29:28;;;;;;;6.40;5.85;;;8.50;99.90;;;;;;5013403;28;20556;-83
2022/11/12 07:31:54;;;;;;;6.28;5.63;;;8.60;99.90;;;;;;5013553;28;20267;-81
2022/11/12 07:34:22;;;;;;;6.88;5.75;;;8.60;99.90;;;;;;5014557;28;20171;-81
2022/11/12 07:36:50;;;;;;;6.70;5.53;;;8.70;99.90;;;;;;5013162;28;20211;-82
2022/11/12 07:39:17;;;;;;;6.90;6.20;;;8.60;99.90;;;;;;5014213;28;20180;-80
2022/11/12 07:41:42;;;;;;;6.32;5.72;;;8.60;99.90;;;;;;5014134;28;20212;-81
2022/11/12 07:44:08;;;;;;;5.97;5.38;;;8.70;99.90;;;;;;5014322;28;20181;-79
2022/11/12 07:46:34;;;;;;;7.05;6.35;;;8.90;99.90;;;;;;5014240;28;20176;-80
2022/11/12 07:49:00;;;;;;;5.85;5.03;;;8.90;99.90;;;;;;5013015;28;20627;-80
2022/11/12 07:51:27;;;;;;;6.55;5.95;;;8.90;99.90;;;;;;5014070;28;20758;-81
2022/11/12 07:53:55;;;;;;;8.25;5.90;;;9.00;99.90;;;;;;5014200;28;20253;-80
2022/11/12 07:56:23;;;;;;;8.57;5.45;;;9.10;99.90;;;;;;5011725;28;20255;-82
2022/11/12 07:58:49;;;;;;;6.95;6.10;;;9.10;99.90;;;;;;5012596;28;20271;-82
2022/11/12 08:01:31;;;;;;;8.98;5.78;;;9.20;99.90;;;;;;5013901;28;20267;-82
2022/11/12 08:03:58;;;;;;;6.20;5.68;;;9.30;99.90;;;;;;5013767;28;20977;-81
2022/11/12 08:06:24;;;;;;;8.95;5.50;;;9.40;99.90;;;;;;5014440;28;20183;-82
2022/11/12 08:08:53;;;;;;;8.38;5.65;;;9.40;99.90;;;;;;5015789;28;20203;-83
2022/11/12 08:11:19;;;;;;;11.13;5.75;;;9.50;99.90;;;;;;5012390;28;20223;-81
2022/11/12 08:13:45;;;;;;;7.50;6.03;;;9.60;99.90;;;;;;5012504;28;20645;-81
2022/11/12 08:16:10;;;;;;;6.20;5.60;;;9.70;99.90;;;;;;5013964;28;20171;-82
2022/11/12 08:18:36;;;;;;;7.07;5.47;;;9.70;99.90;;;;;;5013222;28;20604;-81
2022/11/12 08:21:03;;;;;;;8.48;6.63;;;9.80;99.90;;;;;;5013538;28;20200;-82
2022/11/12 08:23:29;;;;;;;6.43;5.80;;;10.00;99.90;;;;;;5013506;28;20637;-82
2022/11/12 08:25:59;;;;;;;6.50;4.95;;;10.10;99.90;;;;;;5013797;28;20176;-83
2022/11/12 08:28:26;;;;;;;19.60;7.55;;;10.10;99.90;;;;;;5013222;28;20195;-82
2022/11/12 08:30:52;;;;;;;23.65;7.90;;;10.20;99.90;;;;;;5013319;28;20161;-83
2022/11/12 08:33:17;;;;;;;31.40;10.32;;;10.30;99.90;;;;;;5013108;28;20176;-83
2022/11/12 08:35:43;;;;;;;30.08;11.13;;;10.30;99.90;;;;;;5013623;28;20583;-82
2022/11/12 08:38:09;;;;;;;20.92;10.32;;;10.40;99.90;;;;;;5011991;28;20279;-82
2022/11/12 08:40:35;;;;;;;31.75;9.75;;;10.40;99.90;;;;;;5013455;28;20219;-83
2022/11/12 08:43:07;;;;;;;31.02;9.07;;;10.50;99.90;;;;;;5012058;28;20208;-82
2022/11/12 08:45:39;;;;;;;31.38;10.48;;;10.60;99.90;;;;;;5012341;28;20739;-82
2022/11/12 08:48:08;;;;;;;20.40;11.52;;;10.70;99.90;;;;;;5012096;28;20537;-81
2022/11/12 08:50:34;;;;;;;25.27;12.77;;;10.80;99.90;;;;;;5011984;28;20192;-80
2022/11/12 08:53:02;;;;;;;31.80;10.70;;;10.90;99.90;;;;;;5012444;28;20231;-87
2022/11/12 08:55:28;;;;;;;22.90;11.48;;;10.90;99.90;;;;;;5013363;28;20164;-84
2022/11/12 08:57:54;;;;;;;21.27;11.63;;;11.00;99.90;;;;;;5013199;28;20181;-82
2022/11/12 09:00:20;;;;;;;22.83;10.18;;;11.00;99.90;;;;;;5012822;28;20222;-81
2022/11/12 09:02:45;;;;;;;22.63;11.50;;;11.20;99.90;;;;;;5012760;28;20212;-81
2022/11/12 09:05:11;;;;;;;15.88;9.40;;;11.30;99.90;;;;;;5028652;28;20175;-82
2022/11/12 09:07:36;;;;;;;14.05;9.88;;;11.20;99.90;;;;;;5026735;28;20632;-81
2022/11/12 09:10:02;;;;;;;18.90;9.45;;;11.30;99.90;;;;;;5031724;28;20172;-83
2022/11/12 09:12:28;;;;;;;15.45;9.25;;;11.30;99.90;;;;;;5033465;28;20592;-82
2022/11/12 09:14:55;;;;;;;17.05;9.05;;;11.40;99.90;;;;;;5032642;28;20700;-82
2022/11/12 09:17:23;;;;;;;11.77;9.00;;;11.40;99.90;;;;;;5032550;28;20179;-83
2022/11/12 09:19:51;;;;;;;10.32;8.73;;;11.50;99.90;;;;;;5032301;28;20184;-81
2022/11/12 09:22:23;;;;;;;13.70;8.02;;;11.50;99.90;;;;;;5030359;28;20230;-82
2022/11/12 09:24:48;;;;;;;12.52;7.10;;;11.60;99.90;;;;;;5033635;28;20172;-83
2022/11/12 09:27:14;;;;;;;11.77;7.30;;;11.60;99.90;;;;;;5032622;28;20306;-81
2022/11/12 09:29:40;;;;;;;14.57;6.88;;;11.60;99.90;;;;;;5038686;28;20188;-83
2022/11/12 09:32:06;;;;;;;7.32;5.60;;;11.80;99.90;;;;;;5039318;28;20179;-84
2022/11/12 09:34:31;;;;;;;11.02;6.63;;;11.90;99.90;;;;;;5039767;28;20168;-82
2022/11/12 09:36:57;;;;;;;16.65;5.72;;;12.10;99.90;;;;;;5051085;28;20183;-83
2022/11/12 09:39:22;;;;;;;7.63;5.45;;;12.20;99.90;;;;;;5051330;28;20192;-81
2022/11/12 09:41:48;;;;;;;6.82;5.78;;;12.30;99.90;;;;;;5051398;28;20214;-80
2022/11/12 09:44:23;;;;;;;6.65;4.90;;;12.50;99.90;;;;;;5052189;28;20179;-83
2022/11/12 09:47:29;;;;;;;6.97;4.55;;;12.40;99.90;;;;;;5050652;28;20166;-82
2022/11/12 09:50:19;;;;;;;17.50;5.03;;;12.30;99.90;;;;;;5047457;28;20235;-81
2022/11/12 09:52:49;;;;;;;6.60;4.55;;;12.40;99.90;;;;;;5041106;28;20247;-81
2022/11/12 09:55:24;;;;;;;6.90;5.32;;;12.50;99.90;;;;;;5048769;28;20156;-79
2022/11/12 09:57:50;;;;;;;7.18;4.43;;;12.50;99.90;;;;;;5049565;28;20202;-81
2022/11/12 10:00:18;;;;;;;20.98;5.35;;;12.60;99.90;;;;;;5042978;28;20168;-82
2022/11/12 10:03:00;;;;;;;9.43;3.70;;;12.60;99.90;;;;;;5040855;28;20210;-83
2022/11/12 10:05:54;;;;;;;7.75;4.40;;;12.80;99.90;;;;;;5042697;28;20172;-81
2022/11/12 10:08:44;;;;;;;6.50;4.50;;;12.80;99.90;;;;;;5049825;28;20560;-81
2022/11/12 10:11:15;;;;;;;6.72;4.78;;;12.60;99.90;;;;;;5049268;28;20152;-81
2022/11/12 10:14:20;;;;;;;5.60;4.45;;;12.60;99.90;;;;;;5050768;28;20184;-81
2022/11/12 10:17:04;;;;;;;4.80;4.40;;;12.70;99.90;;;;;;5049115;28;20156;-81
2022/11/12 10:19:57;;;;;;;11.82;4.38;;;12.80;99.90;;;;;;5052362;28;20241;-80
2022/11/12 10:22:57;;;;;;;6.20;4.32;;;12.90;99.90;;;;;;5036678;28;20544;-79
2022/11/12 10:25:23;;;;;;;4.68;4.20;;;13.10;99.90;;;;;;5036006;28;20171;-82
2022/11/12 10:27:50;;;;;;;5.45;4.38;;;13.20;99.90;;;;;;5036228;28;20195;-78
2022/11/12 10:30:20;;;;;;;5.75;3.75;;;13.20;99.90;;;;;;5035663;28;20164;-80
2022/11/12 10:32:48;;;;;;;8.93;4.95;;;13.20;99.90;;;;;;5036010;28;20175;-81
2022/11/12 10:35:19;;;;;;;4.90;4.50;;;13.20;99.90;;;;;;5034721;28;20182;-80
2022/11/12 10:38:00;;;;;;;6.03;4.70;;;13.20;99.90;;;;;;5035301;28;20164;-82
2022/11/12 10:40:32;;;;;;;11.30;6.00;;;13.20;99.90;;;;;;5035544;28;20171;-80
2022/11/12 10:43:01;;;;;;;5.28;4.68;;;13.30;99.90;;;;;;5035130;28;20256;-82
2022/11/12 10:45:27;;;;;;;6.40;5.35;;;13.20;99.90;;;;;;5034598;28;20175;-81
2022/11/12 10:47:53;;;;;;;7.43;4.55;;;13.30;99.90;;;;;;5033716;28;20223;-81
2022/11/12 10:50:21;;;;;;;6.72;5.28;;;13.30;99.90;;;;;;5035220;28;20206;-81
2022/11/12 10:53:03;;;;;;;11.68;4.65;;;13.40;99.90;;;;;;5033763;28;20561;-81
2022/11/12 10:55:37;;;;;;;4.95;4.45;;;13.50;99.90;;;;;;5033802;28;20190;-81
2022/11/12 10:58:12;;;;;;;5.50;5.00;;;13.60;99.90;;;;;;5034543;28;20188;-82
2022/11/12 11:00:53;;;;;;;6.97;4.60;;;13.80;99.90;;;;;;5035207;28;20558;-85
2022/11/12 11:03:23;;;;;;;6.03;4.85;;;13.70;99.90;;;;;;5034760;28;20210;-81
2022/11/12 11:05:57;;;;;;;6.07;4.80;;;13.70;99.90;;;;;;5034702;28;20164;-83
2022/11/12 11:08:44;;;;;;;6.03;5.07;;;13.80;99.90;;;;;;5034718;28;20233;-81
2022/11/12 11:11:30;;;;;;;5.85;4.97;;;13.90;99.90;;;;;;5034855;28;20168;-80
2022/11/12 11:14:17;;;;;;;5.82;5.22;;;14.10;99.90;;;;;;5033455;28;20168;-83
2022/11/12 11:17:00;;;;;;;6.22;4.88;;;14.00;99.90;;;;;;5035383;28;20179;-83
2022/11/12 11:19:36;;;;;;;8.80;5.20;;;14.00;99.90;;;;;;5033492;28;20210;-82
2022/11/12 11:22:22;;;;;;;9.90;5.80;;;14.10;99.90;;;;;;5034663;28;20256;-83
2022/11/12 11:25:20;;;;;;;7.05;5.40;;;14.20;99.90;;;;;;5034556;28;20168;-82
2022/11/12 11:27:58;;;;;;;5.85;4.93;;;14.10;99.90;;;;;;5034515;28;20558;-81
2022/11/12 11:30:24;;;;;;;5.45;4.95;;;14.10;99.90;;;;;;5031609;28;20233;-82
2022/11/12 11:33:11;;;;;;;7.30;4.32;;;14.10;99.90;;;;;;5033097;28;20168;-81
2022/11/12 11:36:06;;;;;;;6.32;4.95;;;14.00;99.90;;;;;;5032934;28;20234;-81
2022/11/12 11:38:40;;;;;;;5.00;4.40;;;14.00;99.90;;;;;;5034678;28;20184;-82
2022/11/12 11:41:17;;;;;;;5.38;4.80;;;14.30;99.90;;;;;;5034278;28;20175;-82
2022/11/12 11:44:07;;;;;;;7.43;4.70;;;14.40;99.90;;;;;;5032888;28;20190;-81
2022/11/12 11:46:54;;;;;;;7.10;4.57;;;14.50;99.90;;;;;;5033923;28;20175;-82
2022/11/12 11:49:48;;;;;;;4.43;4.03;;;14.40;99.90;;;;;;5033499;28;20595;-81
2022/11/12 11:52:38;;;;;;;10.15;5.28;;;14.40;99.90;;;;;;5031404;28;20249;-81
2022/11/12 11:55:27;;;;;;;10.05;4.32;;;14.40;99.90;;;;;;5032211;28;20179;-80
2022/11/12 11:57:58;;;;;;;7.05;4.15;;;14.30;99.90;;;;;;5033397;28;20179;-81
2022/11/12 12:00:33;;;;;;;5.60;4.78;;;14.30;99.90;;;;;;5033339;28;20248;-81
2022/11/12 12:03:11;;;;;;;6.20;4.07;;;14.30;99.90;;;;;;5033105;28;20253;-81
2022/11/12 12:06:12;;;;;;;4.10;3.80;;;14.30;99.90;;;;;;5033354;28;20313;-81
2022/11/12 12:08:46;;;;;;;12.55;5.45;;;14.30;99.90;;;;;;5033465;28;20656;-80
2022/11/12 12:11:22;;;;;;;7.03;5.18;;;14.60;99.90;;;;;;5033278;28;20178;-80
2022/11/12 12:14:15;;;;;;;5.30;4.70;;;14.60;99.90;;;;;;5032738;28;20187;-81
2022/11/12 12:16:51;;;;;;;4.68;4.22;;;14.60;99.90;;;;;;5033925;28;20183;-82
2022/11/12 12:19:32;;;;;;;5.90;4.57;;;14.70;99.90;;;;;;5033168;28;20308;-82
2022/11/12 12:22:00;;;;;;;8.35;4.63;;;14.90;99.90;;;;;;5031500;28;20211;-83
2022/11/12 12:24:54;;;;;;;6.07;4.47;;;14.90;99.90;;;;;;5033539;28;20199;-83
2022/11/12 12:27:28;;;;;;;5.03;4.30;;;14.90;99.90;;;;;;5029715;28;20267;-82
2022/11/12 12:30:23;;;;;;;11.73;4.57;;;15.00;99.90;;;;;;5033453;28;20195;-83
2022/11/12 12:32:57;;;;;;;6.00;4.30;;;15.10;99.90;;;;;;5033178;28;20179;-82
2022/11/12 12:35:39;;;;;;;7.00;5.28;;;15.10;99.90;;;;;;5033610;28;20166;-83
2022/11/12 12:38:10;;;;;;;5.95;4.60;;;15.20;99.90;;;;;;5031666;28;20195;-80
2022/11/12 12:40:57;;;;;;;16.23;5.18;;;15.30;99.90;;;;;;5032868;28;20182;-81
2022/11/12 12:43:43;;;;;;;11.73;5.45;;;15.20;99.90;;;;;;5031132;28;20256;-81
2022/11/12 12:46:12;;;;;;;6.80;4.30;;;15.20;99.90;;;;;;5032256;28;20199;-81
2022/11/12 12:48:41;;;;;;;5.07;4.05;;;15.20;99.90;;;;;;5032648;28;20290;-81
2022/11/12 12:51:07;;;;;;;4.93;4.30;;;15.20;99.90;;;;;;5030940;28;20164;-80
2022/11/12 12:53:35;;;;;;;6.25;4.68;;;15.30;99.90;;;;;;5032324;28;20255;-81
2022/11/12 12:56:06;;;;;;;7.50;5.22;;;15.20;99.90;;;;;;5032251;28;20160;-82
2022/11/12 12:58:48;;;;;;;8.35;4.50;;;15.30;99.90;;;;;;5032294;28;20219;-82
2022/11/12 13:01:19;;;;;;;3.92;3.63;;;15.40;99.90;;;;;;5031909;28;20196;-81
2022/11/12 13:04:02;;;;;;;11.57;4.68;;;15.30;99.90;;;;;;5027768;28;20202;-81
2022/11/12 13:06:44;;;;;;;5.70;4.57;;;15.40;99.90;;;;;;5030830;28;20163;-81
2022/11/12 13:09:16;;;;;;;9.20;4.25;;;15.40;99.90;;;;;;5030664;28;20213;-81
2022/11/12 13:14:37;;;;;;;4.85;3.42;;;15.30;99.90;;;;;;5032166;28;20249;-81
2022/11/12 13:17:06;;;;;;;6.00;3.58;;;15.40;99.90;;;;;;5030544;28;20257;-81
2022/11/12 13:19:35;;;;;;;6.88;3.42;;;15.40;99.90;;;;;;5032018;28;20279;-82
2022/11/12 13:22:16;;;;;;;5.95;3.45;;;15.50;99.90;;;;;;5031958;28;20246;-81
2022/11/12 13:25:01;;;;;;;10.60;4.97;;;15.60;99.90;;;;;;5032275;28;20214;-82
2022/11/12 13:27:39;;;;;;;5.25;4.75;;;15.60;99.90;;;;;;5031746;28;20243;-82
2022/11/12 13:30:13;;;;;;;6.68;5.05;;;15.60;99.90;;;;;;5030646;28;20638;-82